createdAt,value
2023-03-03T00:00:50.382Z,102464.56
2023-03-03T00:03:21.448Z,102463.69
2023-03-03T00:05:49.531Z,102460.63
2023-03-03T00:08:17.277Z,102460.47
2023-03-03T00:10:45.275Z,102453.47
2023-03-03T00:13:17.318Z,102441.25
2023-03-03T00:15:45.103Z,102455.78
2023-03-03T00:18:22.966Z,102453.50
2023-03-03T00:20:54.586Z,102469.28
2023-03-03T00:23:31.125Z,102460.25
2023-03-03T00:25:59.734Z,102464.69
2023-03-03T00:28:47.918Z,102472.50
2023-03-03T00:31:27.870Z,102473.50
2023-03-03T00:33:57.912Z,102474.25
2023-03-03T00:36:36.982Z,102474.66
2023-03-03T00:39:26.228Z,102479.13
2023-03-03T00:41:53.934Z,102474.50
2023-03-03T00:44:43.882Z,102477.59
2023-03-03T00:47:31.922Z,102485.25
2023-03-03T00:50:07.900Z,102485.13
2023-03-03T00:52:38.038Z,102480.63
2023-03-03T00:55:06.764Z,102478.34
2023-03-03T00:57:33.912Z,102477.47
2023-03-03T01:00:01.048Z,102483.56
2023-03-03T01:02:29.505Z,102491.84
2023-03-03T01:04:57.650Z,102490.72
2023-03-03T01:07:25.461Z,102492.13
2023-03-03T01:09:52.776Z,102482.03
2023-03-03T01:12:19.853Z,102489.56
2023-03-03T01:14:49.691Z,102492.88
2023-03-03T01:17:16.905Z,102492.34
2023-03-03T01:19:44.060Z,102489.94
2023-03-03T01:22:11.114Z,102491.06
2023-03-03T01:24:38.124Z,102488.78
2023-03-03T01:27:05.163Z,102477.59
2023-03-03T01:29:32.173Z,102486.47
2023-03-03T01:31:59.314Z,102476.69
2023-03-03T01:34:26.397Z,102474.38
2023-03-03T01:36:53.487Z,102487.50
2023-03-03T01:39:20.561Z,102485.22
2023-03-03T01:41:47.622Z,102478.97
2023-03-03T01:44:15.857Z,102485.47
2023-03-03T01:47:04.954Z,102486.78
2023-03-03T01:49:56.118Z,102463.81
2023-03-03T01:52:33.699Z,102482.81
2023-03-03T01:55:06.959Z,102492.22
2023-03-03T01:57:39.345Z,102485.09
2023-03-03T02:00:07.684Z,102481.13
2023-03-03T02:02:35.878Z,102487.78
2023-03-03T02:05:03.053Z,102488.69
2023-03-03T02:07:31.895Z,102491.22
2023-03-03T02:10:04.587Z,102487.78
2023-03-03T02:12:36.227Z,102495.94
2023-03-03T02:15:16.209Z,102497.22
2023-03-03T02:17:43.793Z,102488.53
2023-03-03T02:20:19.187Z,102483.84
2023-03-03T02:23:34.037Z,102491.34
2023-03-03T02:26:06.400Z,102493.53
2023-03-03T02:28:36.851Z,102488.81
2023-03-03T02:31:12.368Z,102499.91
2023-03-03T02:33:40.944Z,102492.38
2023-03-03T02:36:15.609Z,102485.50
2023-03-03T02:38:49.527Z,102483.69
2023-03-03T02:41:41.497Z,102486.00
2023-03-03T02:44:11.448Z,102481.66
2023-03-03T02:46:41.019Z,102478.97
2023-03-03T02:49:11.297Z,102486.09
2023-03-03T02:51:39.506Z,102488.78
2023-03-03T02:54:08.352Z,102485.47
2023-03-03T02:56:35.957Z,102485.47
2023-03-03T02:59:04.772Z,102487.00
2023-03-03T03:01:37.420Z,102494.75
2023-03-03T03:04:09.558Z,102496.91
2023-03-03T03:06:36.887Z,102495.00
2023-03-03T03:09:06.221Z,102487.25
2023-03-03T03:11:35.177Z,102480.72
2023-03-03T03:14:03.873Z,102476.13
2023-03-03T03:16:31.967Z,102483.19
2023-03-03T03:19:00.529Z,102484.53
2023-03-03T03:21:28.686Z,102477.03
2023-03-03T03:23:55.798Z,102481.38
2023-03-03T03:26:23.290Z,102483.66
2023-03-03T03:28:52.033Z,102477.16
2023-03-03T03:31:20.420Z,102483.66
2023-03-03T03:33:47.971Z,102479.19
2023-03-03T03:36:15.037Z,102477.81
2023-03-03T03:38:42.237Z,102482.00
2023-03-03T03:41:10.790Z,102470.16
2023-03-03T03:43:38.032Z,102483.69
2023-03-03T03:46:05.424Z,102490.66
2023-03-03T03:48:32.634Z,102496.03
2023-03-03T03:50:59.929Z,102490.41
2023-03-03T03:53:27.540Z,102490.16
2023-03-03T03:55:54.708Z,102504.03
2023-03-03T03:58:21.912Z,102501.25
2023-03-03T04:00:49.365Z,102506.63
2023-03-03T04:03:16.604Z,102504.47
2023-03-03T04:05:44.324Z,102508.66
2023-03-03T04:08:11.651Z,102509.66
2023-03-03T04:10:39.104Z,102490.53
2023-03-03T04:13:06.419Z,102502.75
2023-03-03T04:15:33.640Z,102505.88
2023-03-03T04:18:00.692Z,102495.13
2023-03-03T04:20:28.603Z,102499.72
2023-03-03T04:22:57.577Z,102497.31
2023-03-03T04:25:24.794Z,102502.53
2023-03-03T04:27:52.903Z,102494.38
2023-03-03T04:30:20.322Z,102498.81
2023-03-03T04:32:47.792Z,102493.25
2023-03-03T04:35:14.966Z,102496.81
2023-03-03T04:37:42.032Z,102492.47
2023-03-03T04:40:10.130Z,102502.03
2023-03-03T04:42:37.418Z,102500.25
2023-03-03T04:45:05.533Z,102508.28
2023-03-03T04:47:32.606Z,102506.13
2023-03-03T04:50:00.768Z,102508.28
2023-03-03T04:52:29.265Z,102507.66
2023-03-03T04:54:56.407Z,102512.47
2023-03-03T04:57:23.505Z,102515.81
2023-03-03T04:59:51.500Z,102503.19
2023-03-03T05:02:18.959Z,102505.09
2023-03-03T05:04:46.113Z,102501.03
2023-03-03T05:07:13.217Z,102494.41
2023-03-03T05:09:40.244Z,102493.63
2023-03-03T05:12:07.449Z,102499.75
2023-03-03T05:14:34.496Z,102494.94
2023-03-03T05:17:04.589Z,102501.28
2023-03-03T05:19:31.867Z,102502.94
2023-03-03T05:22:00.655Z,102499.50
2023-03-03T05:24:29.060Z,102496.19
2023-03-03T05:26:56.314Z,102492.88
2023-03-03T05:29:23.846Z,102490.47
2023-03-03T05:31:51.146Z,102498.47
2023-03-03T05:34:18.267Z,102495.81
2023-03-03T05:36:45.404Z,102502.06
2023-03-03T05:39:12.554Z,102497.97
2023-03-03T05:41:40.260Z,102502.31
2023-03-03T05:44:07.541Z,102501.81
2023-03-03T05:46:34.707Z,102500.16
2023-03-03T05:49:02.329Z,102503.72
2023-03-03T05:51:29.568Z,102505.91
2023-03-03T05:53:57.414Z,102507.16
2023-03-03T05:56:24.519Z,102501.28
2023-03-03T05:58:51.738Z,102502.56
2023-03-03T06:01:18.854Z,102506.41
2023-03-03T06:03:45.874Z,102505.13
2023-03-03T06:06:14.078Z,102509.34
2023-03-03T06:08:41.186Z,102508.72
2023-03-03T06:11:08.266Z,102508.94
2023-03-03T06:13:35.278Z,102516.88
2023-03-03T06:16:02.409Z,102512.63
2023-03-03T06:18:29.468Z,102505.63
2023-03-03T06:20:57.563Z,102516.97
2023-03-03T06:23:24.893Z,102512.91
2023-03-03T06:25:53.240Z,102507.41
2023-03-03T06:28:20.383Z,102518.00
2023-03-03T06:30:47.464Z,102520.56
2023-03-03T06:33:14.493Z,102518.41
2023-03-03T06:35:41.649Z,102525.28
2023-03-03T06:38:08.688Z,102516.72
2023-03-03T06:40:35.794Z,102527.59
2023-03-03T06:43:04.264Z,102527.59
2023-03-03T06:45:31.401Z,102520.81
2023-03-03T06:47:58.699Z,102529.38
2023-03-03T06:50:25.797Z,102528.47
2023-03-03T06:53:20.015Z,102536.38
2023-03-03T06:55:46.939Z,102543.66
2023-03-03T06:58:21.867Z,102538.16
2023-03-03T07:00:55.881Z,102539.31
2023-03-03T07:03:35.316Z,102542.84
2023-03-03T07:06:14.669Z,102545.69
2023-03-03T07:08:41.714Z,102547.97
2023-03-03T07:11:16.310Z,102553.06
2023-03-03T07:13:50.281Z,102563.28
2023-03-03T07:16:19.312Z,102559.59
2023-03-03T07:18:51.024Z,102570.19
2023-03-03T07:21:36.864Z,102566.09
2023-03-03T07:24:15.861Z,102570.44
2023-03-03T07:26:42.928Z,102575.03
2023-03-03T07:29:15.990Z,102576.03
2023-03-03T07:31:47.701Z,102575.13
2023-03-03T07:34:20.285Z,102572.84
2023-03-03T07:36:48.736Z,102581.91
2023-03-03T07:39:35.507Z,102583.66
2023-03-03T07:42:39.921Z,102589.69
2023-03-03T07:45:28.305Z,102587.50
2023-03-03T07:48:09.664Z,102588.16
2023-03-03T07:50:36.788Z,102590.72
2023-03-03T07:53:06.473Z,102595.78
2023-03-03T07:55:39.695Z,102599.25
2023-03-03T07:58:16.570Z,102603.44
2023-03-03T08:01:02.123Z,102603.28
2023-03-03T08:03:29.375Z,102604.56
2023-03-03T08:05:57.421Z,102604.16
2023-03-03T08:08:31.884Z,102610.94
2023-03-03T08:11:00.743Z,102613.72
2023-03-03T08:13:41.079Z,102617.28
2023-03-03T08:16:10.908Z,102620.88
2023-03-03T08:18:48.228Z,102621.25
2023-03-03T08:21:16.566Z,102619.72
2023-03-03T08:23:44.772Z,102615.84
2023-03-03T08:26:16.881Z,102625.97
2023-03-03T08:28:43.971Z,102631.03
2023-03-03T08:31:20.272Z,102626.94
2023-03-03T08:33:52.254Z,102630.88
2023-03-03T08:36:20.002Z,102640.16
2023-03-03T08:38:47.306Z,102640.69
2023-03-03T08:41:14.433Z,102635.72
2023-03-03T08:43:41.730Z,102640.94
2023-03-03T08:46:10.256Z,102634.78
2023-03-03T08:48:37.998Z,102626.03
2023-03-03T08:51:05.879Z,102633.63
2023-03-03T08:53:36.368Z,102634.13
2023-03-03T08:56:04.498Z,102625.19
2023-03-03T08:58:35.497Z,102638.19
2023-03-03T09:01:04.127Z,102634.19
2023-03-03T09:03:31.583Z,102641.31
2023-03-03T09:05:58.959Z,102642.25
2023-03-03T09:08:26.095Z,102640.66
2023-03-03T09:10:53.151Z,102638.88
2023-03-03T09:13:20.911Z,102645.19
2023-03-03T09:15:49.158Z,102635.19
2023-03-03T09:18:30.031Z,102651.00
2023-03-03T09:20:58.296Z,102630.53
2023-03-03T09:23:36.919Z,102645.25
2023-03-03T09:26:30.492Z,102643.06
2023-03-03T09:29:11.163Z,102640.84
2023-03-03T09:32:01.023Z,102638.63
2023-03-03T09:34:36.951Z,102643.34
2023-03-03T09:37:27.299Z,102647.13
2023-03-03T09:39:56.321Z,102649.13
2023-03-03T09:42:47.885Z,102647.13
2023-03-03T09:45:33.066Z,102650.59
2023-03-03T09:48:18.036Z,102655.19
2023-03-03T09:51:12.977Z,102654.06
2023-03-03T09:53:48.859Z,102655.72
2023-03-03T09:56:24.876Z,102658.78
2023-03-03T09:59:09.748Z,102659.06
2023-03-03T10:01:51.754Z,102652.06
2023-03-03T10:04:37.263Z,102653.19
2023-03-03T10:07:21.114Z,102649.41
2023-03-03T10:10:03.361Z,102657.44
2023-03-03T10:12:54.570Z,102651.19
2023-03-03T10:15:54.373Z,102656.09
2023-03-03T10:18:36.589Z,102656.31
2023-03-03T10:21:32.739Z,102655.75
2023-03-03T10:24:27.489Z,102653.97
2023-03-03T10:27:13.758Z,102654.63
2023-03-03T10:30:10.807Z,102655.41
2023-03-03T10:32:48.649Z,102657.75
2023-03-03T10:35:31.129Z,102649.81
2023-03-03T10:38:05.075Z,102654.81
2023-03-03T10:40:51.524Z,102643.97
2023-03-03T10:43:43.091Z,102663.91
2023-03-03T10:46:19.509Z,102658.66
2023-03-03T10:49:14.736Z,102659.03
2023-03-03T10:52:09.476Z,102663.31
2023-03-03T10:54:51.554Z,102668.31
2023-03-03T10:57:41.278Z,102657.78
2023-03-03T11:00:24.127Z,102656.94
2023-03-03T11:03:05.316Z,102654.00
2023-03-03T11:05:53.095Z,102652.75
2023-03-03T11:08:46.147Z,102646.44
2023-03-03T11:11:35.856Z,102654.72
2023-03-03T11:14:17.326Z,102651.91
2023-03-03T11:16:44.351Z,102657.97
2023-03-03T11:19:28.395Z,102655.44
2023-03-03T11:21:58.593Z,102655.16
2023-03-03T11:24:34.664Z,102650.63
2023-03-03T11:27:07.600Z,102654.50
2023-03-03T11:29:58.744Z,102648.66
2023-03-03T11:33:03.386Z,102644.88
2023-03-03T11:35:40.940Z,102643.88
2023-03-03T11:38:08.010Z,102650.19
2023-03-03T11:40:48.864Z,102645.69
2023-03-03T11:43:39.758Z,102640.16
2023-03-03T11:46:17.038Z,102639.16
2023-03-03T11:49:03.437Z,102638.78
2023-03-03T11:52:02.860Z,102648.16
2023-03-03T11:54:36.297Z,102637.69
2023-03-03T11:57:28.466Z,102631.94
2023-03-03T12:00:03.126Z,102637.97
2023-03-03T12:02:45.450Z,102641.16
2023-03-03T12:05:30.130Z,102629.09
2023-03-03T12:08:16.298Z,102616.31
2023-03-03T12:10:58.629Z,102620.66
2023-03-03T12:13:36.702Z,102627.84
2023-03-03T12:16:09.411Z,102625.72
2023-03-03T12:18:42.210Z,102623.44
2023-03-03T12:21:38.252Z,102632.72
2023-03-03T12:24:11.694Z,102625.53
2023-03-03T12:26:54.462Z,102620.09
2023-03-03T12:29:35.330Z,102625.63
2023-03-03T12:32:16.693Z,102621.94
2023-03-03T12:35:13.250Z,102621.97
2023-03-03T12:38:04.219Z,102615.97
2023-03-03T12:40:36.147Z,102607.25
2023-03-03T12:43:17.586Z,102605.66
2023-03-03T12:45:56.237Z,102608.13
2023-03-03T12:48:43.999Z,102605.81
2023-03-03T12:51:22.446Z,102597.25
2023-03-03T12:54:12.104Z,102600.03
2023-03-03T12:57:05.526Z,102598.53
2023-03-03T12:59:54.801Z,102597.44
2023-03-03T13:02:43.765Z,102604.28
2023-03-03T13:05:10.857Z,102600.63
2023-03-03T13:08:06.417Z,102597.44
2023-03-03T13:11:00.029Z,102594.69
2023-03-03T13:13:38.827Z,102592.16
2023-03-03T13:16:17.306Z,102592.50
2023-03-03T13:18:57.809Z,102594.66
2023-03-03T13:21:40.793Z,102596.25
2023-03-03T13:24:25.564Z,102597.38
2023-03-03T13:27:01.557Z,102586.22
2023-03-03T13:29:41.951Z,102579.28
2023-03-03T13:32:17.868Z,102584.84
2023-03-03T13:34:44.926Z,102597.91
2023-03-03T13:37:37.821Z,102585.84
2023-03-03T13:40:16.869Z,102590.47
2023-03-03T13:42:49.178Z,102593.25
2023-03-03T13:45:37.283Z,102593.81
2023-03-03T13:48:41.412Z,102591.97
2023-03-03T13:51:21.155Z,102576.06
2023-03-03T13:53:53.880Z,102582.09
2023-03-03T13:56:50.318Z,102588.03
2023-03-03T13:59:20.278Z,102580.31
2023-03-03T14:01:54.981Z,102586.94
2023-03-03T14:04:33.487Z,102583.44
2023-03-03T14:07:43.068Z,102584.94
2023-03-03T14:10:21.920Z,102583.44
2023-03-03T14:13:00.716Z,102583.94
2023-03-03T14:15:38.668Z,102574.94
2023-03-03T14:18:14.611Z,102579.31
2023-03-03T14:20:48.949Z,102570.16
2023-03-03T14:23:38.481Z,102579.75
2023-03-03T14:26:10.736Z,102576.38
2023-03-03T14:28:47.170Z,102574.41
2023-03-03T14:31:30.747Z,102560.19
2023-03-03T14:34:03.413Z,102569.56
2023-03-03T14:36:38.844Z,102569.22
2023-03-03T14:39:30.561Z,102563.63
2023-03-03T14:41:59.389Z,102564.78
2023-03-03T14:44:49.422Z,102561.41
2023-03-03T14:47:24.962Z,102568.34
2023-03-03T14:49:54.720Z,102556.47
2023-03-03T14:52:24.917Z,102557.19
2023-03-03T14:55:00.806Z,102545.19
2023-03-03T14:57:51.481Z,102550.75
2023-03-03T15:00:24.547Z,102560.56
2023-03-03T15:03:11.031Z,102552.25
2023-03-03T15:05:52.179Z,102554.25
2023-03-03T15:08:33.505Z,102551.31
2023-03-03T15:11:25.662Z,102543.22
2023-03-03T15:13:52.886Z,102540.88
2023-03-03T15:16:31.151Z,102549.66
2023-03-03T15:19:01.669Z,102543.13
2023-03-03T15:21:35.289Z,102545.50
2023-03-03T15:24:28.475Z,102526.81
2023-03-03T15:27:27.327Z,102536.44
2023-03-03T15:30:12.889Z,102538.72
2023-03-03T15:32:53.885Z,102528.22
2023-03-03T15:35:53.827Z,102526.84
2023-03-03T15:38:51.406Z,102533.06
2023-03-03T15:41:37.224Z,102518.25
2023-03-03T15:44:16.694Z,102533.28
2023-03-03T15:46:43.722Z,102524.06
2023-03-03T15:49:22.651Z,102516.06
2023-03-03T15:52:22.774Z,102523.00
2023-03-03T15:54:59.780Z,102529.22
2023-03-03T15:57:57.438Z,102525.06
2023-03-03T16:00:55.089Z,102529.22
2023-03-03T16:03:52.019Z,102512.59
2023-03-03T16:06:38.266Z,102522.28
2023-03-03T16:09:20.356Z,102524.16
2023-03-03T16:11:51.451Z,102520.22
2023-03-03T16:14:36.625Z,102526.44
2023-03-03T16:17:22.313Z,102528.22
2023-03-03T16:19:53.718Z,102533.84
2023-03-03T16:22:29.249Z,102521.38
2023-03-03T16:25:02.165Z,102532.97
2023-03-03T16:27:35.110Z,102527.72
2023-03-03T16:30:20.254Z,102529.19
2023-03-03T16:33:19.494Z,102529.09
2023-03-03T16:36:00.589Z,102524.97
2023-03-03T16:38:32.495Z,102521.59
2023-03-03T16:41:04.766Z,102525.84
2023-03-03T16:43:31.721Z,102517.03
2023-03-03T16:46:21.313Z,102523.34
2023-03-03T16:49:00.591Z,102520.50
2023-03-03T16:51:41.426Z,102513.09
2023-03-03T16:54:37.000Z,102516.44
2023-03-03T16:57:49.120Z,102521.31
2023-03-03T17:00:28.551Z,102517.72
2023-03-03T17:03:04.433Z,102524.44
2023-03-03T17:05:47.780Z,102531.16
2023-03-03T17:08:28.811Z,102531.97
2023-03-03T17:11:08.291Z,102532.94
2023-03-03T17:13:47.576Z,102528.88
2023-03-03T17:16:37.063Z,102524.53
2023-03-03T17:19:24.952Z,102534.13
2023-03-03T17:22:11.907Z,102532.38
2023-03-03T17:24:41.708Z,102531.56
2023-03-03T17:27:17.418Z,102536.59
2023-03-03T17:30:10.505Z,102541.25
2023-03-03T17:32:43.496Z,102550.22
2023-03-03T17:35:18.728Z,102542.03
2023-03-03T17:37:51.395Z,102549.16
2023-03-03T17:40:52.946Z,102553.97
2023-03-03T17:43:29.055Z,102550.53
2023-03-03T17:46:01.773Z,102548.75
2023-03-03T17:48:31.718Z,102551.09
2023-03-03T17:51:07.409Z,102553.50
2023-03-03T17:53:46.455Z,102555.38
2023-03-03T17:56:37.902Z,102553.50
2023-03-03T17:59:35.268Z,102558.59
2023-03-03T18:02:30.533Z,102564.53
2023-03-03T18:05:21.162Z,102566.41
2023-03-03T18:08:45.738Z,102564.72
2023-03-03T18:11:18.497Z,102557.13
2023-03-03T18:14:00.645Z,102572.63
2023-03-03T18:16:51.925Z,102560.47
2023-03-03T18:19:30.826Z,102568.19
2023-03-03T18:22:21.599Z,102577.69
2023-03-03T18:24:51.274Z,102574.09
2023-03-03T18:27:23.868Z,102572.53
2023-03-03T18:30:24.876Z,102575.91
2023-03-03T18:32:57.814Z,102583.84
2023-03-03T18:35:33.899Z,102577.38
2023-03-03T18:38:16.246Z,102582.81
2023-03-03T18:41:03.743Z,102583.69
2023-03-03T18:43:39.694Z,102588.03
2023-03-03T18:46:32.228Z,102585.94
2023-03-03T18:49:10.631Z,102591.78
2023-03-03T18:51:40.817Z,102593.56
2023-03-03T18:54:14.152Z,102587.31
2023-03-03T18:56:50.053Z,102589.78
2023-03-03T18:59:35.161Z,102588.88
2023-03-03T19:02:10.995Z,102585.91
2023-03-03T19:04:41.645Z,102587.78
2023-03-03T19:07:27.251Z,102580.25
2023-03-03T19:09:58.689Z,102592.53
2023-03-03T19:12:59.949Z,102581.56
2023-03-03T19:15:29.730Z,102589.78
2023-03-03T19:18:21.161Z,102589.66
2023-03-03T19:20:59.788Z,102588.78
2023-03-03T19:23:47.312Z,102591.28
2023-03-03T19:26:28.418Z,102584.09
2023-03-03T19:29:31.168Z,102585.59
2023-03-03T19:32:09.606Z,102586.69
2023-03-03T19:35:09.818Z,102588.38
2023-03-03T19:37:47.063Z,102582.44
2023-03-03T19:40:56.757Z,102584.03
2023-03-03T19:44:06.185Z,102580.69
2023-03-03T19:46:52.593Z,102590.03
2023-03-03T19:49:42.551Z,102586.28
2023-03-03T19:52:28.701Z,102580.94
2023-03-03T19:55:11.893Z,102588.22
2023-03-03T19:57:45.924Z,102593.66
2023-03-03T20:00:34.693Z,102593.53
2023-03-03T20:03:20.175Z,102594.03
2023-03-03T20:06:21.979Z,102588.88
2023-03-03T20:08:58.835Z,102594.72
2023-03-03T20:11:37.930Z,102605.75
2023-03-03T20:14:31.463Z,102595.19
2023-03-03T20:17:29.260Z,102594.09
2023-03-03T20:20:17.282Z,102604.16
2023-03-03T20:22:54.265Z,102599.22
2023-03-03T20:25:34.113Z,102604.19
2023-03-03T20:28:23.977Z,102605.75
2023-03-03T20:31:11.763Z,102602.41
2023-03-03T20:34:11.284Z,102603.59
2023-03-03T20:36:54.619Z,102606.41
2023-03-03T20:39:46.378Z,102604.38
2023-03-03T20:42:19.224Z,102610.91
2023-03-03T20:45:06.272Z,102609.13
2023-03-03T20:47:39.012Z,102609.44
2023-03-03T20:50:27.585Z,102606.97
2023-03-03T20:53:31.650Z,102610.53
2023-03-03T20:56:10.690Z,102606.97
2023-03-03T20:58:52.576Z,102605.06
2023-03-03T21:01:59.197Z,102600.41
2023-03-03T21:04:29.043Z,102596.50
2023-03-03T21:07:00.748Z,102597.28
2023-03-03T21:09:34.096Z,102597.19
2023-03-03T21:12:04.764Z,102583.81
2023-03-03T21:14:36.425Z,102594.50
2023-03-03T21:17:29.072Z,102597.38
2023-03-03T21:20:21.565Z,102599.63
2023-03-03T21:22:48.682Z,102600.72
2023-03-03T21:25:40.717Z,102607.09
2023-03-03T21:28:30.207Z,102602.50
2023-03-03T21:31:10.753Z,102605.44
2023-03-03T21:33:45.192Z,102600.22
2023-03-03T21:36:23.598Z,102599.44
2023-03-03T21:38:53.023Z,102600.13
2023-03-03T21:41:21.235Z,102597.25
2023-03-03T21:43:51.695Z,102594.69
2023-03-03T21:46:24.211Z,102594.09
2023-03-03T21:48:52.355Z,102599.31
2023-03-03T21:51:20.455Z,102586.97
2023-03-03T21:53:47.805Z,102596.28
2023-03-03T21:56:15.145Z,102596.88
2023-03-03T21:58:43.079Z,102595.28
2023-03-03T22:01:10.280Z,102600.53
2023-03-03T22:03:37.620Z,102597.28
2023-03-03T22:06:04.910Z,102601.53
2023-03-03T22:08:32.048Z,102604.19
2023-03-03T22:10:59.130Z,102606.78
2023-03-03T22:13:27.553Z,102603.19
2023-03-03T22:15:55.280Z,102593.03
2023-03-03T22:18:22.492Z,102606.97
2023-03-03T22:20:50.634Z,102593.16
2023-03-03T22:23:18.904Z,102588.00
2023-03-03T22:25:46.185Z,102573.63
2023-03-03T22:28:13.507Z,102588.00
2023-03-03T22:30:40.942Z,102597.28
2023-03-03T22:33:08.207Z,102592.72
2023-03-03T22:35:35.407Z,102597.19
2023-03-03T22:38:05.295Z,102594.72
2023-03-03T22:40:33.518Z,102596.50
2023-03-03T22:43:00.688Z,102590.38
2023-03-03T22:45:31.424Z,102599.63
2023-03-03T22:47:59.334Z,102591.19
2023-03-03T22:50:26.546Z,102604.34
2023-03-03T22:52:55.092Z,102593.31
2023-03-03T22:55:22.543Z,102597.19
2023-03-03T22:57:50.059Z,102597.19
2023-03-03T23:00:24.720Z,102597.28
2023-03-03T23:02:51.911Z,102596.59
2023-03-03T23:05:19.139Z,102594.94
2023-03-03T23:07:46.344Z,102600.31
2023-03-03T23:10:13.969Z,102597.38
2023-03-03T23:12:41.234Z,102599.53
2023-03-03T23:15:13.337Z,102606.56
2023-03-03T23:17:42.251Z,102607.47
2023-03-03T23:20:17.619Z,102599.63
2023-03-03T23:22:44.806Z,102603.97
2023-03-03T23:25:13.786Z,102586.97
2023-03-03T23:27:42.230Z,102604.38
2023-03-03T23:30:11.500Z,102605.22
2023-03-03T23:32:40.258Z,102590.03
2023-03-03T23:35:07.959Z,102599.94
2023-03-03T23:37:35.091Z,102599.31
2023-03-03T23:40:02.429Z,102592.53
2023-03-03T23:42:30.710Z,102601.00
2023-03-03T23:44:58.814Z,102594.00
2023-03-03T23:47:25.998Z,102590.41
2023-03-03T23:49:53.167Z,102597.25
2023-03-03T23:52:20.458Z,102600.50
2023-03-03T23:54:47.641Z,102599.94
2023-03-03T23:57:14.728Z,102593.75
2023-03-03T23:59:41.819Z,102595.22
